Time;durP1;ratioP1;P1;durP2;ratioP2;P2;SDS_P1;SDS_P2;PMS_P1;PMS_P2;Temp;Humidity;BMP_temperature;BMP_pressure;BME280_temperature;BME280_humidity;BME280_pressure;Samples;Min_cycle;Max_cycle;Signal;HPM_P1;HPM_P2
2022/08/11 00:01:17;;;;;;;4.68;4.22;;;;;;;20.77;66.38;93584.84;5032518;28;20021;-56
2022/08/11 00:03:57;;;;;;;8.88;5.00;;;;;;;20.67;66.73;93592.66;5031930;28;20017;-57
2022/08/11 00:06:29;;;;;;;13.82;4.78;;;;;;;20.67;66.95;93589.84;5049982;28;20071;-56
2022/08/11 00:08:55;;;;;;;21.48;5.50;;;;;;;20.66;67.02;93580.69;5032193;28;20032;-56
2022/08/11 00:11:21;;;;;;;5.93;4.60;;;;;;;20.62;67.31;93588.88;5031757;28;20028;-56
2022/08/11 00:13:48;;;;;;;6.28;5.15;;;;;;;20.52;67.31;93560.22;5032099;28;20028;-56
2022/08/11 00:16:22;;;;;;;7.10;4.85;;;;;;;20.72;67.16;93581.06;5049486;28;20055;-56
2022/08/11 00:18:51;;;;;;;11.57;4.57;;;;;;;20.72;66.45;93575.47;5049672;28;20025;-49
2022/08/11 00:21:22;;;;;;;6.18;4.82;;;;;;;20.71;66.49;93585.19;5031635;28;20041;-47
2022/08/11 00:23:56;;;;;;;15.40;5.32;;;;;;;20.64;66.85;93572.16;5049591;28;20033;-50
2022/08/11 00:26:23;;;;;;;5.70;4.65;;;;;;;20.65;66.66;93582.03;5031740;28;20114;-59
2022/08/11 00:28:50;;;;;;;5.90;5.30;;;;;;;20.61;67.04;93573.41;5031584;28;20100;-59
2022/08/11 00:31:30;;;;;;;5.18;4.72;;;;;;;20.48;66.89;93562.81;5049414;28;20021;-60
2022/08/11 00:33:58;;;;;;;5.30;4.80;;;;;;;20.59;66.83;93572.53;5029334;28;20092;-59
2022/08/11 00:36:29;;;;;;;8.77;6.88;;;;;;;20.40;67.20;93549.03;5031827;28;20029;-59
2022/08/11 00:39:02;;;;;;;11.18;5.57;;;;;;;20.50;67.33;93571.34;5031608;28;20533;-59
2022/08/11 00:41:31;;;;;;;5.20;4.70;;;;;;;20.54;66.91;93563.16;5049049;28;20533;-59
2022/08/11 00:44:13;;;;;;;;;;;;;;;20.51;67.17;93569.97;5047720;28;20021;-60
2022/08/11 00:47:03;;;;;;;9.57;5.63;;;;;;;20.45;67.17;93566.81;5049557;28;19963;-59
2022/08/11 00:49:44;;;;;;;6.03;5.05;;;;;;;20.44;67.17;93562.56;5048404;28;20078;-57
2022/08/11 00:52:29;;;;;;;5.32;4.80;;;;;;;20.42;66.73;93564.50;5049958;28;20025;-57
2022/08/11 00:55:37;;;;;;;5.28;4.78;;;;;;;20.39;66.91;93572.06;5032259;28;20145;-57
2022/08/11 00:58:30;;;;;;;7.25;5.03;;;;;;;20.32;67.05;93570.25;5049701;28;20044;-58
2022/08/11 01:00:58;;;;;;;8.73;4.90;;;;;;;20.31;67.04;93563.91;5049877;28;20029;-58
2022/08/11 01:04:12;;;;;;;7.00;4.75;;;;;;;20.31;66.60;93574.41;5049918;28;20114;-58
2022/08/11 01:06:49;;;;;;;7.32;5.22;;;;;;;20.27;66.71;93577.69;4930095;29;20047;-58
2022/08/11 01:09:39;;;;;;;5.90;4.97;;;;;;;20.24;66.94;93578.19;4930280;29;20111;-59
2022/08/11 01:12:19;;;;;;;7.18;5.45;;;;;;;20.15;67.06;93579.72;5014365;28;20040;-59
2022/08/11 01:15:06;;;;;;;5.78;5.07;;;;;;;20.14;66.97;93572.66;5049724;28;20025;-59
2022/08/11 01:17:49;;;;;;;6.50;5.38;;;;;;;20.07;67.38;93570.09;5031647;28;20121;-58
2022/08/11 01:20:30;;;;;;;6.80;5.38;;;;;;;20.06;67.17;93568.63;5049349;28;20025;-58
2022/08/11 01:23:32;;;;;;;16.98;5.57;;;;;;;20.05;67.49;93569.97;5049625;28;20032;-58
2022/08/11 01:26:19;;;;;;;9.20;6.32;;;;;;;20.00;67.57;93559.84;5050955;28;20090;-57
2022/08/11 01:29:41;;;;;;;8.55;5.82;;;;;;;19.93;67.90;93552.41;5053081;28;20036;-58
2022/08/11 01:32:19;;;;;;;6.82;5.90;;;;;;;19.95;67.63;93546.94;4971016;28;20054;-57
2022/08/11 01:35:03;;;;;;;7.75;6.05;;;;;;;19.87;67.71;93549.25;4971933;28;20065;-58
2022/08/11 01:37:53;;;;;;;9.45;6.20;;;;;;;19.63;68.66;93552.03;5036124;28;20037;-58
2022/08/11 01:40:40;;;;;;;6.50;5.80;;;;;;;19.71;68.14;93553.88;5033152;28;20036;-58
2022/08/11 01:46:23;;;;;;;6.85;5.78;;;;;;;19.48;68.75;93560.88;5067181;28;20047;-56
2022/08/11 01:49:10;;;;;;;6.95;6.25;;;;;;;19.54;69.05;93564.06;5073006;28;20024;-51
2022/08/11 01:52:01;;;;;;;7.88;6.00;;;;;;;19.47;68.71;93559.41;5054905;28;20044;-56
2022/08/11 01:54:34;;;;;;;7.10;5.50;;;;;;;19.10;69.00;93521.31;5054913;28;20024;-58
2022/08/11 01:57:20;;;;;;;7.35;6.25;;;;;;;19.36;68.77;93560.09;5054646;28;20502;-58
2022/08/11 01:59:53;;;;;;;8.60;6.28;;;;;;;19.16;69.50;93566.47;5054935;28;20021;-58
2022/08/11 02:02:46;;;;;;;11.98;5.90;;;;;;;19.10;69.68;93557.69;5054465;28;20115;-58
2022/08/11 02:05:49;;;;;;;8.23;5.05;;;;;;;18.92;70.09;93566.38;5057615;28;20067;-58
2022/08/11 02:08:44;;;;;;;6.18;5.55;;;;;;;19.05;69.67;93564.34;5072107;28;20038;-58
2022/08/11 02:11:29;;;;;;;7.45;5.20;;;;;;;18.93;69.80;93555.88;5054457;28;20036;-58
2022/08/11 02:14:12;;;;;;;7.38;5.57;;;;;;;18.78;70.18;93567.50;5045120;28;20029;-58
2022/08/11 02:17:07;;;;;;;8.27;5.25;;;;;;;18.63;69.95;93542.72;5034173;28;20059;-58
2022/08/11 02:25:50;;;;;;;7.20;6.15;;;;;;;18.66;70.62;93564.66;5052320;28;20036;-56
2022/08/11 02:28:15;;;;;;;7.18;6.47;;;;;;;18.67;70.31;93559.75;5051700;28;20685;-57
2022/08/11 02:33:21;;;;;;;7.75;6.10;;;;;;;18.65;70.38;93562.44;5052087;28;20032;-55
2022/08/11 02:33:43;;;;;;;7.18;6.15;;;;;;;18.49;70.85;93550.19;5050888;28;20028;-61
2022/08/11 02:36:18;;;;;;;8.73;7.07;;;;;;;18.50;71.50;93560.78;5050601;28;20040;-56
2022/08/11 02:39:05;;;;;;;7.65;6.85;;;;;;;18.52;71.29;93555.31;5029565;28;20028;-57
2022/08/11 02:44:35;;;;;;;8.05;7.28;;;;;;;18.39;71.91;93558.59;5071802;28;20085;-57
2022/08/11 02:47:13;;;;;;;6.63;6.03;;;;;;;18.40;71.60;93551.69;5031557;28;20025;-53
2022/08/11 02:49:55;;;;;;;7.43;6.68;;;;;;;18.37;71.52;93557.72;5066461;28;20029;-53
2022/08/11 02:53:02;;;;;;;7.88;6.45;;;;;;;18.23;71.70;93554.00;5051305;28;20021;-51
2022/08/11 02:55:57;;;;;;;6.78;5.80;;;;;;;18.07;71.28;93534.06;5051217;28;20046;-50
2022/08/11 02:59:48;;;;;;;8.27;6.43;;;;;;;18.18;71.58;93550.94;5044306;28;20021;-58
2022/08/11 03:01:49;;;;;;;7.88;6.28;;;;;;;18.05;70.86;93553.50;5033595;28;20507;-49
2022/08/11 03:04:22;;;;;;;7.05;6.05;;;;;;;17.87;71.49;93552.97;5014151;28;20438;-49
2022/08/11 03:07:13;;;;;;;6.72;6.03;;;;;;;17.90;71.30;93559.44;5018572;28;20021;-57
2022/08/11 03:09:46;;;;;;;7.35;5.63;;;;;;;17.74;71.99;93553.47;5033394;28;20509;-57
2022/08/11 03:18:27;;;;;;;16.60;6.10;;;;;;;17.73;72.45;93556.88;5044379;28;20091;-58
2022/08/11 03:21:05;;;;;;;7.15;5.88;;;;;;;17.59;72.33;93556.59;5046828;28;20566;-59
2022/08/11 03:23:56;;;;;;;7.10;6.15;;;;;;;17.68;71.98;93555.84;5042244;28;20509;-49
2022/08/11 03:26:38;;;;;;;6.30;5.70;;;;;;;17.62;72.10;93554.69;5029258;28;20554;-56
2022/08/11 03:29:22;;;;;;;6.63;5.93;;;;;;;17.51;72.99;93547.69;5028421;28;20024;-55
2022/08/11 03:31:51;;;;;;;6.13;5.53;;;;;;;17.55;71.60;93550.00;5032867;28;20489;-58
2022/08/11 03:34:25;;;;;;;7.22;5.85;;;;;;;17.40;71.59;93534.31;5049008;28;20043;-57
2022/08/11 03:37:49;;;;;;;8.77;5.72;;;;;;;17.32;72.21;93553.28;5047857;28;20112;-56
2022/08/11 03:43:53;;;;;;;7.00;5.78;;;;;;;17.23;72.25;93556.81;5019748;28;20172;-56
2022/08/11 03:46:38;;;;;;;7.40;5.53;;;;;;;17.20;72.20;93550.34;5029956;28;20028;-55
2022/08/11 03:49:19;;;;;;;10.98;5.85;;;;;;;17.29;72.27;93560.78;5029965;28;20032;-55
2022/08/11 03:51:55;;;;;;;23.35;21.35;;;;;;;17.39;71.97;93557.94;5049753;28;20025;-54
2022/08/11 03:54:21;;;;;;;8.73;5.88;;;;;;;17.32;71.63;93562.41;5029788;28;20048;-53
2022/08/11 03:57:20;;;;;;;7.63;5.95;;;;;;;17.23;71.33;93565.19;5049079;28;20096;-53
2022/08/11 04:00:09;;;;;;;9.10;5.90;;;;;;;17.23;71.22;93559.59;5031679;28;20024;-59
2022/08/11 04:02:38;;;;;;;11.25;5.65;;;;;;;17.16;71.34;93566.06;5046614;28;20061;-50
2022/08/11 04:05:19;;;;;;;15.67;4.93;;;;;;;17.19;71.46;93562.84;5049154;28;20498;-57
2022/08/11 04:07:59;;;;;;;7.63;5.57;;;;;;;17.16;71.72;93561.22;5047568;28;20032;-56
2022/08/11 04:10:46;;;;;;;9.90;5.90;;;;;;;17.08;72.08;93571.09;5047452;28;20017;-55
2022/08/11 04:13:30;;;;;;;6.47;5.60;;;;;;;17.09;72.33;93561.38;5048472;28;20410;-57
2022/08/11 04:16:14;;;;;;;31.20;7.45;;;;;;;17.15;72.12;93562.53;5046455;28;20049;-58
2022/08/11 04:18:58;;;;;;;7.95;5.50;;;;;;;17.07;72.63;93566.81;5046671;28;20023;-58
2022/08/11 04:22:02;;;;;;;10.07;5.82;;;;;;;17.13;72.97;93564.47;5047387;28;20041;-57
2022/08/11 04:25:01;;;;;;;10.02;5.50;;;;;;;17.05;73.40;93558.31;5047818;28;20028;-58
2022/08/11 04:27:56;;;;;;;6.53;5.88;;;;;;;17.21;72.89;93565.06;5048012;28;20033;-57
2022/08/11 04:30:31;;;;;;;6.35;5.45;;;;;;;17.26;72.86;93570.31;5047162;28;20079;-58
2022/08/11 04:33:22;;;;;;;7.60;6.47;;;;;;;17.32;72.90;93565.19;5028683;28;20021;-57
2022/08/11 04:35:53;;;;;;;7.97;5.75;;;;;;;17.26;73.83;93567.53;5047921;28;20171;-57
2022/08/11 04:38:32;;;;;;;6.30;5.70;;;;;;;17.40;73.57;93565.00;5046413;28;20024;-58
2022/08/11 04:41:26;;;;;;;8.23;6.10;;;;;;;17.43;73.60;93567.34;5046221;28;20029;-58
2022/08/11 04:44:14;;;;;;;6.95;6.28;;;;;;;17.52;73.86;93574.25;5048124;28;20032;-59
2022/08/11 04:46:58;;;;;;;9.32;5.70;;;;;;;17.64;73.61;93563.94;5046515;28;20064;-59
2022/08/11 05:02:03;;;;;;;10.20;6.88;;;;;;;17.95;73.48;93573.09;5035076;28;20567;-58
2022/08/11 05:07:59;;;;;;;7.93;6.65;;;;;;;17.85;74.65;93577.97;5034722;28;20112;-58
2022/08/11 05:11:02;;;;;;;7.13;6.43;;;;;;;17.89;75.15;93569.88;5050690;28;20025;-59
2022/08/11 05:36:49;;;;;;;7.57;6.78;;;;;;;18.47;77.39;93570.38;5037788;28;20086;-58
2022/08/11 05:58:43;;;;;;;9.05;7.15;;;;;;;18.96;74.83;93565.16;5052354;28;20009;-58
2022/08/11 06:01:11;;;;;;;6.80;6.00;;;;;;;19.08;75.22;93563.16;5051730;28;20465;-57
2022/08/11 06:04:12;;;;;;;8.30;6.35;;;;;;;19.20;74.39;93561.84;5052371;28;20022;-58
2022/08/11 06:06:24;;;;;;;32.70;17.20;;;;;;;19.31;73.79;93552.03;5037171;28;20033;-57
2022/08/11 06:08:54;;;;;;;85.80;41.22;;;;;;;19.37;73.83;93566.44;5051504;28;20033;-57
2022/08/11 06:11:20;;;;;;;49.25;28.15;;;;;;;19.49;73.96;93564.41;5051830;28;20025;-57
2022/08/11 06:13:45;;;;;;;23.10;15.40;;;;;;;19.57;72.25;93568.47;5051229;28;20032;-58
2022/08/11 06:16:14;;;;;;;11.45;9.95;;;;;;;19.64;71.96;93561.16;5051951;28;20434;-57
2022/08/11 06:18:45;;;;;;;8.77;6.85;;;;;;;19.70;72.04;93541.91;5052098;28;20521;-58
2022/08/11 06:21:10;;;;;;;7.00;6.30;;;;;;;19.97;71.04;93558.25;5034476;28;20106;-49
2022/08/11 06:23:36;;;;;;;24.92;7.85;;;;;;;20.07;70.79;93567.31;5051988;28;20490;-50
2022/08/11 06:26:08;;;;;;;8.18;5.43;;;;;;;20.14;70.01;93566.34;5034481;28;20432;-53
2022/08/11 06:28:37;;;;;;;9.43;8.40;;;;;;;20.21;68.30;93560.50;5034209;28;20498;-59
2022/08/11 06:31:02;;;;;;;;;;;;;;;20.21;67.69;93556.94;5052740;28;20440;-59
2022/08/11 06:34:03;;;;;;;6.28;5.68;;;;;;;20.27;66.68;93557.34;5033929;28;19996;-56
2022/08/11 06:36:41;;;;;;;8.25;6.53;;;;;;;20.25;66.04;93551.59;5049756;28;20040;-53
2022/08/11 06:39:14;;;;;;;6.47;5.88;;;;;;;20.30;67.62;93559.66;5034268;28;20029;-54
2022/08/11 06:41:47;;;;;;;7.93;5.72;;;;;;;20.33;67.44;93546.47;5031201;28;20096;-57
2022/08/11 06:44:12;;;;;;;17.48;5.60;;;;;;;20.49;67.17;93561.44;5032186;28;20494;-58
2022/08/11 06:46:49;;;;;;;6.65;4.68;;;;;;;20.68;64.87;93557.66;5048851;28;20090;-59
2022/08/11 06:52:04;;;;;;;7.47;6.72;;;;;;;20.95;63.52;93566.22;5051577;28;20167;-58
2022/08/11 06:54:35;;;;;;;5.13;4.38;;;;;;;21.00;63.83;93559.50;5051299;28;20033;-58
2022/08/11 07:02:52;;;;;;;5.93;5.32;;;;;;;21.35;63.67;93565.75;5034444;28;20039;-59
2022/08/11 07:05:47;;;;;;;7.32;5.55;;;;;;;21.41;61.44;93559.75;5032329;28;20029;-54
2022/08/11 07:29:11;;;;;;;4.65;4.15;;;;;;;22.38;57.12;93560.84;5043848;28;20108;-57
2022/08/11 07:31:48;;;;;;;4.82;3.63;;;;;;;22.43;53.89;93564.59;5050308;28;20036;-57
2022/08/11 07:34:24;;;;;;;3.92;3.53;;;;;;;22.69;54.73;93559.59;5025410;28;20105;-57
2022/08/11 07:36:54;;;;;;;4.90;3.45;;;;;;;23.22;54.96;93560.88;5046485;28;20082;-57
2022/08/11 07:39:30;;;;;;;3.03;2.83;;;;;;;23.80;53.76;93571.44;5057663;28;20040;-57
2022/08/11 07:41:57;;;;;;;3.88;3.47;;;;;;;25.08;50.15;93556.75;5028769;28;20033;-57
2022/08/11 07:44:30;;;;;;;3.58;2.75;;;;;;;26.40;45.74;93554.94;5041631;28;20406;-57
2022/08/11 07:52:31;;;;;;;3.75;2.30;;;;;;;29.49;38.19;93556.94;5015433;28;20056;-57
2022/08/11 07:55:11;;;;;;;30.42;4.25;;;;;;;29.74;37.94;93559.00;5047334;28;20573;-56
2022/08/11 08:19:36;;;;;;;31.38;16.38;;;;;;;28.31;41.12;93572.81;5029519;28;20068;-58
2022/08/11 08:22:08;;;;;;;19.25;10.90;;;;;;;28.48;40.38;93569.06;5017743;28;20025;-57
2022/08/11 08:24:34;;;;;;;7.35;4.68;;;;;;;28.49;41.28;93567.69;5021625;28;20036;-58
2022/08/11 08:26:59;;;;;;;19.23;11.68;;;;;;;29.03;39.03;93574.19;5023861;28;20548;-57
2022/08/11 08:32:11;;;;;;;11.82;10.63;;;;;;;30.46;35.98;93557.13;5023582;28;20044;-57
2022/08/11 08:34:39;;;;;;;25.83;23.13;;;;;;;31.13;36.74;93559.97;5037999;28;20021;-58
2022/08/11 08:37:04;;;;;;;7.53;6.15;;;;;;;31.90;33.22;93553.47;5048373;28;20021;-58
2022/08/11 08:39:33;;;;;;;5.18;4.32;;;;;;;31.60;32.24;93552.28;5030332;28;20021;-57
2022/08/11 08:41:58;;;;;;;;;;;;;;;32.18;32.46;93551.09;5043399;28;20386;-58
2022/08/11 08:44:24;;;;;;;4.40;3.97;;;;;;;32.03;31.64;93554.44;5034968;28;19935;-58
2022/08/11 08:46:54;;;;;;;4.30;3.90;;;;;;;32.28;32.17;93559.09;5053731;28;20082;-57
2022/08/11 08:49:24;;;;;;;6.00;3.60;;;;;;;32.36;32.01;93553.50;5034379;28;20025;-57
2022/08/11 08:51:53;;;;;;;3.85;3.45;;;;;;;32.39;31.01;93545.66;5026042;28;20410;-57
2022/08/11 08:54:22;;;;;;;5.43;3.83;;;;;;;32.55;30.85;93546.63;5016053;28;20021;-58
2022/08/11 08:56:51;;;;;;;2.58;2.22;;;;;;;33.14;29.39;93547.38;5025037;28;20100;-58
2022/08/11 08:59:21;;;;;;;2.78;2.58;;;;;;;33.57;29.32;93543.56;5035275;28;20108;-58
2022/08/11 09:01:54;;;;;;;3.47;2.50;;;;;;;33.32;29.72;93534.00;5033304;28;20033;-58
2022/08/11 09:04:20;;;;;;;3.50;3.20;;;;;;;33.63;28.12;93537.91;5019119;28;20017;-58
2022/08/11 09:06:46;;;;;;;3.28;2.97;;;;;;;33.18;27.51;93536.69;5049588;28;20040;-58
2022/08/11 09:09:12;;;;;;;3.90;2.60;;;;;;;33.23;29.85;93531.75;5051898;28;20379;-59
2022/08/11 09:11:54;;;;;;;3.35;3.05;;;;;;;33.10;28.68;93522.31;5044041;28;20025;-57
2022/08/11 09:14:59;;;;;;;4.88;2.72;;;;;;;33.03;29.20;93520.78;5037432;28;20025;-58
2022/08/11 09:17:27;;;;;;;4.65;2.65;;;;;;;33.57;29.31;93526.38;5032886;28;20099;-60
2022/08/11 09:19:59;;;;;;;3.45;2.80;;;;;;;33.40;29.49;93534.06;5046208;28;20052;-59
2022/08/11 09:27:59;;;;;;;3.65;2.10;;;;;;;33.49;27.83;93526.28;5057124;28;20032;-58
2022/08/11 09:30:26;;;;;;;2.83;2.00;;;;;;;33.56;27.95;93510.63;5024741;28;20025;-58
2022/08/11 09:32:59;;;;;;;2.50;2.20;;;;;;;33.61;28.51;93526.44;5015872;28;20025;-58
2022/08/11 09:35:29;;;;;;;2.60;2.20;;;;;;;33.14;27.08;93525.22;5060050;28;20032;-58
2022/08/11 09:40:43;;;;;;;3.50;2.60;;;;;;;30.97;31.15;93519.00;5021559;28;20065;-63
2022/08/11 09:45:56;;;;;;;2.63;2.35;;;;;;;30.79;33.29;93510.78;5034464;28;20036;-60
2022/08/11 09:48:23;;;;;;;2.90;2.60;;;;;;;31.52;31.34;93512.88;5050208;28;20028;-59
2022/08/11 09:50:54;;;;;;;2.53;2.30;;;;;;;32.12;29.32;93504.56;5048428;28;20460;-59
2022/08/11 09:53:20;;;;;;;3.05;2.08;;;;;;;32.62;30.01;93508.13;5049647;28;20549;-59
2022/08/11 09:55:47;;;;;;;2.30;2.10;;;;;;;33.10;27.38;93505.16;5050191;28;20057;-60
2022/08/11 09:58:15;;;;;;;4.72;2.58;;;;;;;33.69;28.89;93503.59;5032237;28;20074;-59
2022/08/11 10:00:46;;;;;;;10.50;2.72;;;;;;;33.99;26.03;93503.81;5031324;28;20043;-60
2022/08/11 10:03:23;;;;;;;2.70;2.50;;;;;;;33.72;24.75;93505.06;5048414;28;20040;-60
2022/08/11 10:08:39;;;;;;;3.78;2.33;;;;;;;33.84;26.31;93501.56;5044612;28;20487;-59
2022/08/11 10:11:06;;;;;;;2.20;1.90;;;;;;;33.79;25.16;93500.78;5031243;28;20028;-59
2022/08/11 10:15:32;;;;;;;2.63;1.90;;;;;;;34.14;25.81;93504.66;5017856;28;20036;-61
2022/08/11 10:16:27;;;;;;;4.32;3.10;;;;;;;34.66;24.95;93496.38;5034347;28;20526;-60
2022/08/11 10:18:57;;;;;;;3.13;2.70;;;;;;;34.72;27.75;93493.53;5049678;28;20036;-60
2022/08/11 10:21:42;;;;;;;3.15;2.20;;;;;;;34.43;27.64;93491.94;5031364;28;20511;-60
2022/08/11 10:26:59;;;;;;;13.13;9.67;;;;;;;34.69;24.78;93499.97;5049926;28;20040;-62
2022/08/11 10:34:58;;;;;;;2.33;2.17;;;;;;;32.30;29.59;93501.25;5034507;28;20434;-59
2022/08/11 10:37:24;;;;;;;5.20;2.28;;;;;;;33.07;28.48;93495.09;5031622;28;20031;-60
2022/08/11 10:39:55;;;;;;;4.18;2.17;;;;;;;33.80;27.00;93484.34;5031605;28;20025;-61
2022/08/11 10:47:33;;;;;;;3.15;2.50;;;;;;;33.20;28.30;93490.94;5049604;28;20044;-60
2022/08/11 10:47:54;;;;;;;2.40;2.20;;;;;;;32.69;29.16;93488.91;5048035;28;20116;-60
2022/08/11 10:58:47;;;;;;;3.35;3.05;;;;;;;29.70;32.47;93485.59;5014338;28;20083;-59
2022/08/11 11:01:14;;;;;;;3.03;2.55;;;;;;;29.12;32.70;93490.56;5029654;28;20029;-60
2022/08/11 11:03:40;;;;;;;3.83;2.63;;;;;;;28.64;35.67;93489.28;5044397;28;20021;-59
2022/08/11 11:06:23;;;;;;;9.60;5.75;;;;;;;28.42;36.24;93488.63;5033006;28;20048;-60
2022/08/11 11:08:54;;;;;;;5.05;3.95;;;;;;;28.20;36.40;93497.22;5034124;28;20037;-60
2022/08/11 11:11:22;;;;;;;4.45;3.20;;;;;;;27.88;37.73;93484.88;5048153;28;20511;-60
2022/08/11 11:19:23;;;;;;;2.38;2.17;;;;;;;27.52;37.91;93492.28;5033634;28;20055;-61
2022/08/11 11:21:53;;;;;;;7.45;3.17;;;;;;;27.42;39.80;93495.50;5048547;28;20498;-61
2022/08/11 11:24:47;;;;;;;5.60;2.60;;;;;;;27.04;37.92;93483.63;5030901;28;20037;-61
2022/08/11 11:27:48;;;;;;;2.97;2.67;;;;;;;26.95;39.15;93492.50;5031281;28;20033;-61
2022/08/11 11:30:15;;;;;;;3.65;2.85;;;;;;;26.85;38.96;93492.16;5022626;28;20262;-60
2022/08/11 11:32:54;;;;;;;2.60;2.40;;;;;;;26.81;39.03;93487.06;5030509;28;20098;-61
2022/08/11 11:35:25;;;;;;;3.90;2.95;;;;;;;26.87;39.54;93490.13;5048514;28;20029;-61
2022/08/11 11:37:52;;;;;;;2.80;2.50;;;;;;;26.95;38.89;93484.72;5048232;28;20025;-60
2022/08/11 11:40:22;;;;;;;2.55;2.38;;;;;;;27.08;38.42;93485.13;5030255;28;20505;-61
2022/08/11 11:42:49;;;;;;;4.40;2.80;;;;;;;26.99;39.19;93473.53;5030243;28;20037;-60
2022/08/11 11:45:17;;;;;;;3.30;2.75;;;;;;;27.17;38.69;93493.25;5048118;28;20040;-59
2022/08/11 11:47:43;;;;;;;3.50;3.20;;;;;;;27.19;41.60;93493.31;5048206;28;20033;-60
2022/08/11 11:50:12;;;;;;;4.00;3.60;;;;;;;27.32;41.81;93488.75;5028250;28;20068;-60
2022/08/11 11:52:42;;;;;;;4.03;3.63;;;;;;;27.23;40.58;93476.44;5034574;28;20037;-59
2022/08/11 11:55:08;;;;;;;3.05;2.72;;;;;;;27.34;40.13;93488.81;5048212;28;20143;-60
2022/08/11 12:03:09;;;;;;;2.90;2.38;;;;;;;27.15;37.01;93486.78;5029228;28;20032;-60
2022/08/11 12:05:36;;;;;;;2.60;2.40;;;;;;;26.95;38.52;93495.34;5019954;28;20067;-60
2022/08/11 12:08:18;;;;;;;2.15;2.05;;;;;;;26.78;39.57;93490.50;5030179;28;20044;-60
2022/08/11 12:10:45;;;;;;;2.55;2.35;;;;;;;26.75;39.62;93489.69;5031683;28;20048;-60
2022/08/11 12:15:57;;;;;;;3.58;2.72;;;;;;;26.74;40.29;93474.09;5047887;28;20137;-59
2022/08/11 12:18:22;;;;;;;3.05;2.47;;;;;;;26.71;39.35;93474.63;5047993;28;20040;-60
2022/08/11 12:20:54;;;;;;;17.63;3.13;;;;;;;26.65;39.16;93477.25;5030132;28;20037;-60
2022/08/11 12:28:50;;;;;;;2.60;2.40;;;;;;;26.21;39.91;93465.09;5020309;28;20043;-59
2022/08/11 12:31:15;;;;;;;5.18;2.50;;;;;;;26.26;39.67;93469.53;5039725;28;20028;-60
2022/08/11 12:33:42;;;;;;;3.33;2.28;;;;;;;26.12;39.73;93474.66;5010459;28;20116;-59
2022/08/11 12:36:10;;;;;;;2.72;2.53;;;;;;;26.18;40.71;93466.41;5028498;28;20033;-59
2022/08/11 12:38:39;;;;;;;3.88;2.33;;;;;;;26.25;39.86;93462.41;5030263;28;20426;-59
2022/08/11 12:46:36;;;;;;;4.60;3.70;;;;;;;26.36;38.41;93452.88;5021430;28;20044;-60
2022/08/11 12:52:01;;;;;;;5.78;2.33;;;;;;;26.64;37.90;93439.72;5046136;28;19923;-60
2022/08/11 12:54:39;;;;;;;2.90;2.70;;;;;;;26.67;40.36;93440.50;5047596;28;20028;-61
2022/08/11 13:05:27;;;;;;;2.78;1.80;;;;;;;27.01;39.61;93453.03;5032805;28;20410;-59
2022/08/11 13:07:55;;;;;;;;;;;;;;;26.96;38.32;93466.31;5030364;28;20052;-61
2022/08/11 13:13:06;;;;;;;2.53;2.33;;;;;;;27.01;38.78;93461.53;5044795;28;20044;-60
2022/08/11 13:15:33;;;;;;;2.15;1.83;;;;;;;26.94;39.38;93471.22;5037952;28;20088;-58
2022/08/11 13:17:58;;;;;;;2.60;2.40;;;;;;;26.92;38.22;93437.88;5029395;28;20113;-60
2022/08/11 13:20:25;;;;;;;2.88;2.67;;;;;;;26.89;37.45;93472.47;5042790;28;20105;-60
2022/08/11 13:22:53;;;;;;;3.17;2.00;;;;;;;26.69;37.70;93466.81;5034393;28;20021;-62
2022/08/11 13:25:21;;;;;;;2.35;2.15;;;;;;;26.67;38.41;93455.41;5051153;28;20033;-60
2022/08/11 13:27:51;;;;;;;2.50;2.30;;;;;;;26.62;38.37;93453.81;5033190;28;20039;-61
2022/08/11 13:33:03;;;;;;;3.22;2.67;;;;;;;26.63;38.39;93452.44;5050945;28;20055;-61
2022/08/11 13:35:32;;;;;;;5.72;2.42;;;;;;;26.95;38.39;93450.72;5051480;28;20085;-60
2022/08/11 13:38:00;;;;;;;;;;;;;;;27.28;37.32;93449.66;5051836;28;20024;-59
2022/08/11 13:40:29;;;;;;;4.28;3.03;;;;;;;27.30;36.84;93449.00;5024936;28;19978;-60
2022/08/11 13:42:57;;;;;;;3.95;2.05;;;;;;;27.27;38.41;93445.38;5052797;28;20113;-60
2022/08/11 13:45:24;;;;;;;5.05;2.47;;;;;;;27.29;36.58;93436.94;5053015;28;20023;-60
2022/08/11 13:47:51;;;;;;;2.10;1.90;;;;;;;27.36;36.13;93432.94;5035297;28;20176;-59
2022/08/11 13:50:18;;;;;;;2.42;2.25;;;;;;;27.41;36.75;93437.34;5052672;28;20124;-60
2022/08/11 13:52:43;;;;;;;7.28;2.35;;;;;;;27.55;37.01;93434.94;5051035;28;20104;-60
2022/08/11 13:55:10;;;;;;;4.07;2.15;;;;;;;27.56;36.21;93427.16;5052649;28;20124;-60
2022/08/11 13:57:36;;;;;;;2.05;1.77;;;;;;;27.64;36.28;93427.41;5052556;28;20631;-60
2022/08/11 14:00:09;;;;;;;4.38;2.30;;;;;;;27.65;36.84;93428.88;5032656;28;20025;-60
2022/08/11 14:02:37;;;;;;;2.30;2.03;;;;;;;27.72;36.83;93419.16;5032959;28;20037;-60
2022/08/11 14:05:23;;;;;;;3.35;2.15;;;;;;;27.66;36.07;93424.63;5052434;28;20031;-60
2022/08/11 14:07:58;;;;;;;2.10;1.90;;;;;;;27.33;36.98;93417.22;5052371;28;20036;-61
2022/08/11 14:10:27;;;;;;;2.28;2.08;;;;;;;27.07;36.81;93419.22;5056426;28;20514;-60
2022/08/11 14:15:56;;;;;;;2.58;2.15;;;;;;;26.73;36.55;93404.66;5021993;28;20126;-60
2022/08/11 14:18:25;;;;;;;2.10;1.88;;;;;;;26.70;36.71;93417.28;5027101;28;20071;-59
2022/08/11 14:23:49;;;;;;;2.80;2.50;;;;;;;26.45;37.79;93429.16;5043743;28;20081;-60
2022/08/11 14:26:22;;;;;;;2.88;2.33;;;;;;;26.43;38.18;93428.34;5034628;28;20031;-59
2022/08/11 14:28:48;;;;;;;1.98;1.88;;;;;;;26.47;37.69;93434.88;5034964;28;20052;-60
2022/08/11 14:31:14;;;;;;;3.58;2.13;;;;;;;26.48;38.48;93425.00;5052202;28;20649;-60
2022/08/11 14:33:40;;;;;;;2.00;1.90;;;;;;;26.65;38.91;93427.03;5033009;28;20025;-59
2022/08/11 14:36:06;;;;;;;3.17;2.25;;;;;;;26.70;37.64;93425.06;5024340;28;20382;-58
2022/08/11 14:38:35;;;;;;;2.03;1.92;;;;;;;26.73;37.49;93432.97;5039959;28;20056;-59
2022/08/11 14:49:22;;;;;;;3.30;2.35;;;;;;;26.76;36.63;93434.50;5016744;28;20067;-60
2022/08/11 14:51:52;;;;;;;2.33;2.10;;;;;;;26.77;36.89;93432.38;5013896;28;20706;-59
2022/08/11 14:57:02;;;;;;;2.33;2.13;;;;;;;26.63;36.62;93435.44;5064724;28;20043;-60
2022/08/11 14:59:28;;;;;;;2.65;2.22;;;;;;;26.57;36.43;93431.69;5066876;28;20028;-60
2022/08/11 15:04:38;;;;;;;2.70;2.50;;;;;;;26.62;36.75;93442.47;5036319;28;20086;-59
2022/08/11 15:07:04;;;;;;;2.33;2.13;;;;;;;26.54;36.86;93436.53;5033637;28;20055;-59
2022/08/11 15:09:30;;;;;;;3.42;2.30;;;;;;;26.47;37.15;93434.88;5033816;28;20421;-59
2022/08/11 15:12:07;;;;;;;2.08;1.98;;;;;;;26.54;36.88;93438.66;5051145;28;20025;-60
2022/08/11 15:17:18;;;;;;;2.15;2.00;;;;;;;26.61;37.15;93438.22;5050076;28;20088;-60
2022/08/11 15:24:18;;;;;;;2.53;2.00;;;;;;;26.51;36.89;93437.13;5020614;28;20033;-60
2022/08/11 15:25:15;;;;;;;2.75;1.80;;;;;;;26.19;37.02;93428.22;5008916;28;20045;-59
2022/08/11 15:38:55;;;;;;;2.92;2.13;;;;;;;26.08;37.38;93429.97;5029724;28;20055;-59
2022/08/11 15:46:57;;;;;;;2.55;2.28;;;;;;;25.99;37.36;93419.69;5035752;28;20032;-60
2022/08/11 15:49:30;;;;;;;2.47;2.05;;;;;;;25.95;37.66;93405.41;5043915;28;20017;-59
2022/08/11 15:52:06;;;;;;;2.60;1.77;;;;;;;25.91;37.64;93408.09;5035051;28;20026;-59
2022/08/11 15:54:32;;;;;;;2.42;2.22;;;;;;;25.88;37.54;93406.56;5012873;28;20037;-59
2022/08/11 15:57:04;;;;;;;2.38;2.17;;;;;;;25.91;37.75;93407.38;5038274;28;20402;-59
2022/08/11 16:05:13;;;;;;;1.85;1.65;;;;;;;25.78;37.93;93408.28;5013870;28;20537;-59
2022/08/11 16:07:40;;;;;;;3.90;1.77;;;;;;;25.85;38.70;93410.72;5028537;28;20053;-59
2022/08/11 16:10:11;;;;;;;2.00;1.80;;;;;;;25.89;37.84;93422.16;5011009;28;20026;-59
2022/08/11 16:12:41;;;;;;;2.35;2.15;;;;;;;25.83;38.56;93404.25;5011174;28;20029;-59
2022/08/11 16:17:56;;;;;;;2.55;1.90;;;;;;;25.87;38.24;93418.53;5021061;28;20525;-60
2022/08/11 16:20:25;;;;;;;2.38;2.17;;;;;;;25.96;38.71;93425.94;5022921;28;20035;-60
2022/08/11 16:22:51;;;;;;;;;;;;;;;25.99;38.94;93422.53;5031545;28;20025;-60
2022/08/11 16:25:21;;;;;;;4.13;2.75;;;;;;;25.94;38.67;93412.47;5031170;28;20397;-60
2022/08/11 16:27:58;;;;;;;3.00;1.95;;;;;;;25.94;38.95;93417.38;5031339;28;20067;-62
2022/08/11 16:30:24;;;;;;;2.22;2.03;;;;;;;25.90;38.66;93417.25;5048790;28;20013;-60
2022/08/11 16:32:51;;;;;;;6.50;2.70;;;;;;;25.80;38.72;93416.84;5022439;28;20028;-59
2022/08/11 16:40:58;;;;;;;3.85;2.38;;;;;;;25.35;38.52;93425.72;5044502;28;20071;-59